Time;durP1;ratioP1;P1;durP2;ratioP2;P2;SDS_P1;SDS_P2;PMS_P1;PMS_P2;Temp;Humidity;BMP_temperature;BMP_pressure;BME280_temperature;BME280_humidity;BME280_pressure;Samples;Min_cycle;Max_cycle;Signal;HPM_P1;HPM_P2
2023/02/26 00:02:09;;;;;;;0.60;0.52;;;21.10;51.90;;;;;;5034382;28;20219;-60
2023/02/26 00:04:40;;;;;;;0.45;0.45;;;21.10;51.80;;;;;;5034572;28;20238;-60
2023/02/26 00:07:10;;;;;;;0.57;0.50;;;21.20;51.90;;;;;;5034157;28;20231;-58
2023/02/26 00:09:41;;;;;;;0.85;0.60;;;21.20;51.90;;;;;;5034482;28;20196;-60
2023/02/26 00:12:14;;;;;;;1.45;0.50;;;21.20;51.90;;;;;;5034371;28;20212;-59
2023/02/26 00:14:47;;;;;;;1.20;0.68;;;21.20;51.90;;;;;;5036854;28;20189;-58
2023/02/26 00:17:44;;;;;;;0.88;0.60;;;21.20;51.90;;;;;;5034166;28;20196;-59
2023/02/26 00:20:15;;;;;;;0.88;0.50;;;21.20;51.90;;;;;;5034146;28;20223;-60
2023/02/26 00:22:46;;;;;;;0.65;0.50;;;21.20;51.80;;;;;;5033612;28;20233;-61
2023/02/26 00:25:17;;;;;;;0.88;0.52;;;21.20;51.80;;;;;;5033319;28;20207;-60
2023/02/26 00:27:48;;;;;;;0.60;0.60;;;21.20;51.80;;;;;;5048124;28;20375;-61
2023/02/26 00:30:22;;;;;;;1.63;0.70;;;21.30;51.80;;;;;;5054212;28;20202;-61
2023/02/26 00:32:53;;;;;;;0.75;0.60;;;21.20;51.90;;;;;;5053846;28;20220;-61
2023/02/26 00:35:24;;;;;;;0.68;0.68;;;21.30;51.90;;;;;;5053266;28;20203;-61
2023/02/26 00:38:06;;;;;;;0.40;0.40;;;21.30;51.90;;;;;;5053267;28;20203;-60
2023/02/26 00:40:44;;;;;;;0.50;0.50;;;21.30;51.90;;;;;;5052974;28;20203;-61
2023/02/26 00:43:18;;;;;;;0.68;0.60;;;21.30;51.90;;;;;;5053494;28;20212;-61
2023/02/26 00:45:58;;;;;;;0.75;0.50;;;21.30;51.90;;;;;;5053645;28;20206;-60
2023/02/26 00:48:52;;;;;;;1.70;0.60;;;21.30;51.90;;;;;;5053369;28;20195;-61
2023/02/26 00:51:32;;;;;;;0.93;0.70;;;21.30;51.90;;;;;;5053217;28;20211;-60
2023/02/26 00:54:11;;;;;;;0.77;0.55;;;21.30;51.90;;;;;;5053741;28;20222;-58
2023/02/26 00:56:41;;;;;;;0.68;0.60;;;21.40;51.90;;;;;;5053066;28;20203;-59
2023/02/26 00:59:12;;;;;;;0.65;0.50;;;21.40;51.90;;;;;;5053356;28;20583;-60
2023/02/26 01:01:45;;;;;;;0.80;0.60;;;21.40;51.90;;;;;;5053915;28;20192;-60
2023/02/26 01:04:17;;;;;;;0.80;0.70;;;21.40;51.90;;;;;;5053483;28;20202;-60
2023/02/26 01:06:49;;;;;;;0.82;0.60;;;21.40;51.90;;;;;;5053115;28;20223;-60
2023/02/26 01:09:26;;;;;;;0.57;0.50;;;21.40;51.80;;;;;;5053202;28;20195;-60
2023/02/26 01:12:00;;;;;;;0.50;0.47;;;21.40;51.90;;;;;;5053155;28;20203;-61
2023/02/26 01:14:32;;;;;;;0.50;0.50;;;21.40;51.90;;;;;;5053155;28;20199;-60
2023/02/26 01:17:09;;;;;;;1.08;0.80;;;21.50;52.00;;;;;;5053182;28;20231;-59
2023/02/26 01:19:46;;;;;;;0.43;0.43;;;21.50;52.00;;;;;;5052545;28;20199;-61
2023/02/26 01:22:22;;;;;;;0.73;0.70;;;21.50;52.00;;;;;;5052787;28;20234;-60
2023/02/26 01:25:01;;;;;;;0.75;0.57;;;21.50;52.00;;;;;;5052701;28;20191;-61
2023/02/26 01:27:32;;;;;;;0.50;0.50;;;21.50;52.00;;;;;;5052054;28;20289;-61
2023/02/26 01:30:03;;;;;;;0.90;0.50;;;21.50;52.00;;;;;;5052838;28;20709;-60
2023/02/26 01:32:45;;;;;;;0.70;0.60;;;21.60;52.00;;;;;;5052734;28;20718;-60
2023/02/26 01:35:31;;;;;;;0.98;0.60;;;21.50;52.00;;;;;;5052327;28;20555;-60
2023/02/26 01:38:06;;;;;;;1.17;0.60;;;21.60;52.00;;;;;;5052483;28;20234;-61
2023/02/26 01:41:30;;;;;;;0.90;0.70;;;21.60;52.00;;;;;;5052442;28;20199;-59
2023/02/26 01:44:15;;;;;;;0.90;0.73;;;21.60;52.00;;;;;;5049177;28;20216;-58
2023/02/26 01:47:04;;;;;;;0.73;0.52;;;21.60;51.90;;;;;;5052525;28;20756;-58
2023/02/26 01:49:37;;;;;;;0.55;0.43;;;21.60;52.00;;;;;;5052570;28;20206;-59
2023/02/26 01:52:09;;;;;;;1.15;0.70;;;21.60;52.10;;;;;;5052997;28;20215;-60
2023/02/26 01:54:40;;;;;;;0.93;0.50;;;21.70;52.30;;;;;;5050140;28;20206;-60
2023/02/26 01:57:13;;;;;;;1.33;0.63;;;21.70;52.30;;;;;;5047265;28;20195;-60
2023/02/26 01:59:46;;;;;;;1.38;0.80;;;21.70;52.40;;;;;;5052759;28;20199;-59
2023/02/26 02:02:20;;;;;;;0.85;0.55;;;21.70;52.40;;;;;;5052142;28;20611;-59
2023/02/26 02:04:53;;;;;;;0.43;0.35;;;21.70;52.50;;;;;;5051528;28;20205;-60
2023/02/26 02:07:23;;;;;;;0.65;0.60;;;21.70;52.40;;;;;;5041103;28;20227;-59
2023/02/26 02:09:54;;;;;;;1.00;0.57;;;21.80;52.40;;;;;;5032043;28;20196;-59
2023/02/26 02:12:34;;;;;;;0.70;0.40;;;21.80;52.30;;;;;;5031859;28;20266;-60
2023/02/26 02:15:13;;;;;;;0.80;0.60;;;21.80;52.30;;;;;;5032300;28;20202;-60
2023/02/26 02:17:52;;;;;;;0.88;0.60;;;21.80;52.30;;;;;;5031481;28;20670;-59
2023/02/26 02:21:09;;;;;;;0.52;0.50;;;21.80;52.30;;;;;;5031536;28;20195;-58
2023/02/26 02:23:44;;;;;;;0.75;0.57;;;21.80;52.30;;;;;;5032110;28;20219;-59
2023/02/26 02:26:48;;;;;;;0.60;0.60;;;21.90;52.30;;;;;;5039545;28;20202;-60
2023/02/26 02:29:48;;;;;;;1.15;0.70;;;21.90;52.40;;;;;;5052204;28;20199;-57
2023/02/26 02:32:24;;;;;;;0.65;0.45;;;21.90;52.40;;;;;;5051676;28;20219;-59
2023/02/26 02:35:02;;;;;;;0.70;0.60;;;21.90;52.50;;;;;;5051591;28;20195;-60
2023/02/26 02:37:38;;;;;;;0.68;0.55;;;21.90;52.50;;;;;;5051959;28;20660;-59
2023/02/26 02:40:13;;;;;;;0.85;0.60;;;21.90;52.50;;;;;;5051876;28;20199;-60
2023/02/26 02:42:47;;;;;;;0.93;0.60;;;21.90;52.60;;;;;;5051176;28;20215;-59
2023/02/26 02:45:21;;;;;;;0.70;0.60;;;21.90;52.60;;;;;;5051295;28;20192;-60
2023/02/26 02:48:00;;;;;;;1.00;0.60;;;21.90;52.60;;;;;;5051150;28;20245;-60
2023/02/26 02:50:36;;;;;;;2.88;0.70;;;21.90;52.60;;;;;;5051778;28;20207;-60
2023/02/26 02:53:12;;;;;;;1.35;0.60;;;22.00;52.60;;;;;;5051766;28;20223;-60
2023/02/26 02:55:46;;;;;;;0.88;0.57;;;22.00;52.50;;;;;;5051382;28;20195;-60
2023/02/26 02:58:19;;;;;;;0.63;0.60;;;22.00;52.50;;;;;;5051399;28;20203;-60
2023/02/26 03:00:52;;;;;;;1.13;0.68;;;22.00;52.50;;;;;;5051394;28;20547;-60
2023/02/26 03:03:29;;;;;;;0.70;0.68;;;22.00;52.50;;;;;;5050885;28;20699;-60
2023/02/26 03:06:00;;;;;;;0.73;0.68;;;22.00;52.50;;;;;;5051240;28;20199;-60
2023/02/26 03:08:32;;;;;;;2.13;0.88;;;22.00;52.50;;;;;;5051329;28;20706;-60
2023/02/26 03:11:03;;;;;;;0.85;0.63;;;22.00;52.60;;;;;;5051348;28;20203;-60
2023/02/26 03:13:34;;;;;;;0.82;0.75;;;22.00;52.60;;;;;;5051190;28;20222;-60
2023/02/26 03:16:18;;;;;;;0.90;0.65;;;22.10;52.70;;;;;;5051168;28;20672;-60
2023/02/26 03:18:59;;;;;;;1.40;0.70;;;22.10;52.80;;;;;;5050907;28;20218;-60
2023/02/26 03:21:35;;;;;;;0.77;0.70;;;22.10;52.80;;;;;;5051175;28;20192;-60
2023/02/26 03:24:14;;;;;;;0.65;0.47;;;22.10;52.80;;;;;;5051154;28;20211;-59
2023/02/26 03:26:48;;;;;;;0.80;0.52;;;22.10;52.80;;;;;;5050965;28;20569;-60
2023/02/26 03:29:24;;;;;;;1.00;0.60;;;22.10;52.70;;;;;;5051438;28;20198;-60
2023/02/26 03:31:59;;;;;;;0.60;0.60;;;22.10;52.70;;;;;;5054692;28;20447;-60
2023/02/26 03:34:39;;;;;;;0.90;0.70;;;22.10;52.70;;;;;;5054732;28;20195;-60
2023/02/26 03:37:13;;;;;;;1.00;0.70;;;22.20;52.80;;;;;;5054587;28;20206;-60
2023/02/26 03:39:47;;;;;;;1.33;0.70;;;22.10;52.70;;;;;;5055232;28;20289;-60
2023/02/26 03:42:24;;;;;;;1.02;0.55;;;22.20;52.70;;;;;;5054724;28;20242;-60
2023/02/26 03:44:57;;;;;;;1.33;0.68;;;22.20;52.70;;;;;;5054948;28;20192;-60
2023/02/26 03:47:31;;;;;;;1.20;0.60;;;22.20;52.80;;;;;;5054892;28;20222;-60
2023/02/26 03:50:08;;;;;;;1.05;0.60;;;22.20;52.80;;;;;;5054641;28;20211;-60
2023/02/26 03:52:43;;;;;;;1.05;0.73;;;22.20;52.80;;;;;;5051667;28;20286;-59
2023/02/26 03:55:17;;;;;;;1.05;0.65;;;22.30;52.90;;;;;;5054494;28;20555;-61
2023/02/26 03:57:48;;;;;;;0.95;0.70;;;22.30;52.90;;;;;;5054763;28;20206;-60
2023/02/26 04:00:20;;;;;;;1.38;0.75;;;22.30;53.00;;;;;;5054086;28;20199;-60
2023/02/26 04:02:57;;;;;;;1.48;0.70;;;22.30;52.90;;;;;;5045479;28;20676;-60
2023/02/26 04:05:33;;;;;;;1.08;0.70;;;22.30;52.90;;;;;;5034552;28;20192;-60
2023/02/26 04:08:04;;;;;;;0.75;0.60;;;22.30;52.90;;;;;;5034564;28;20235;-60
2023/02/26 04:10:38;;;;;;;0.80;0.80;;;22.40;52.90;;;;;;5034511;28;20192;-60
2023/02/26 04:13:08;;;;;;;0.95;0.55;;;22.40;52.90;;;;;;5034062;28;20243;-61
2023/02/26 04:15:39;;;;;;;0.65;0.50;;;22.40;52.80;;;;;;5034506;28;20203;-60
2023/02/26 04:18:10;;;;;;;1.05;0.60;;;22.40;52.80;;;;;;5045244;28;20192;-60
2023/02/26 04:20:42;;;;;;;0.60;0.50;;;22.50;52.80;;;;;;5054382;28;20206;-60
2023/02/26 04:23:13;;;;;;;1.60;0.60;;;22.50;53.10;;;;;;5053882;28;20226;-60
2023/02/26 04:25:44;;;;;;;0.95;0.50;;;22.50;52.90;;;;;;5053454;28;20258;-59
2023/02/26 04:28:14;;;;;;;0.88;0.50;;;22.50;52.90;;;;;;5053470;28;20223;-60
2023/02/26 04:30:45;;;;;;;1.55;0.52;;;22.50;52.90;;;;;;5053990;28;20279;-60
2023/02/26 04:33:16;;;;;;;0.85;0.60;;;22.50;52.90;;;;;;5053908;28;20695;-60
2023/02/26 04:35:49;;;;;;;1.15;0.60;;;22.60;53.00;;;;;;5053718;28;20195;-59
2023/02/26 04:38:20;;;;;;;1.33;0.80;;;22.60;53.00;;;;;;5053551;28;20549;-60
2023/02/26 04:40:52;;;;;;;1.00;0.52;;;22.60;53.00;;;;;;5052804;28;20199;-60
2023/02/26 04:43:23;;;;;;;1.20;0.70;;;22.70;53.00;;;;;;5053696;28;20215;-60
2023/02/26 04:45:53;;;;;;;1.42;0.70;;;22.70;52.90;;;;;;5053433;28;20196;-60
2023/02/26 04:48:24;;;;;;;1.00;0.75;;;22.80;53.00;;;;;;5053013;28;20255;-59
2023/02/26 04:50:56;;;;;;;1.20;0.80;;;22.80;53.00;;;;;;5053235;28;20207;-60
2023/02/26 04:53:27;;;;;;;1.30;0.60;;;22.80;52.90;;;;;;5053974;28;20602;-60
2023/02/26 04:55:58;;;;;;;0.60;0.60;;;22.80;52.80;;;;;;5053181;28;20204;-59
2023/02/26 04:58:29;;;;;;;1.85;0.65;;;22.80;52.80;;;;;;5053288;28;20670;-60
2023/02/26 05:01:00;;;;;;;0.52;0.52;;;22.80;52.80;;;;;;5053419;28;20206;-61
2023/02/26 05:03:30;;;;;;;0.98;0.80;;;22.90;52.80;;;;;;5053384;28;20379;-59
2023/02/26 05:06:03;;;;;;;0.50;0.50;;;22.90;52.90;;;;;;5053350;28;20198;-60
2023/02/26 05:08:34;;;;;;;0.93;0.63;;;22.90;52.90;;;;;;5053342;28;20230;-61
2023/02/26 05:11:04;;;;;;;0.57;0.50;;;22.90;52.90;;;;;;5053145;28;20203;-60
2023/02/26 05:13:35;;;;;;;0.98;0.70;;;23.00;52.90;;;;;;5052605;28;20230;-59
2023/02/26 05:16:06;;;;;;;0.52;0.50;;;23.00;52.90;;;;;;5052607;28;20733;-61
2023/02/26 05:18:37;;;;;;;0.73;0.73;;;23.00;52.90;;;;;;5052992;28;20289;-61
2023/02/26 05:21:10;;;;;;;0.50;0.50;;;23.00;52.90;;;;;;5053214;28;20674;-60
2023/02/26 05:23:41;;;;;;;0.93;0.70;;;23.00;52.90;;;;;;5053057;28;20215;-60
2023/02/26 05:26:12;;;;;;;1.25;0.60;;;23.10;52.80;;;;;;5052414;28;20203;-60
2023/02/26 05:28:44;;;;;;;1.00;0.63;;;23.10;52.80;;;;;;5052277;28;20227;-60
2023/02/26 05:31:15;;;;;;;0.85;0.57;;;23.10;52.80;;;;;;5052816;28;20206;-60
2023/02/26 05:33:46;;;;;;;1.38;0.80;;;23.20;52.80;;;;;;5052372;28;20265;-60
2023/02/26 05:36:18;;;;;;;1.85;0.90;;;23.20;52.80;;;;;;5052179;28;20559;-59
2023/02/26 05:38:49;;;;;;;1.35;1.00;;;23.20;52.80;;;;;;5052659;28;20203;-60
2023/02/26 05:41:20;;;;;;;0.80;0.70;;;23.20;52.90;;;;;;5052907;28;20202;-60
2023/02/26 05:43:50;;;;;;;1.02;0.80;;;23.20;52.90;;;;;;5052400;28;20222;-61
2023/02/26 05:46:21;;;;;;;1.35;0.77;;;23.30;52.90;;;;;;5052809;28;20196;-59
2023/02/26 05:48:52;;;;;;;1.13;1.00;;;23.30;53.00;;;;;;5049046;28;20223;-60
2023/02/26 05:51:24;;;;;;;1.77;0.80;;;23.30;53.00;;;;;;5051919;28;20203;-60
2023/02/26 05:53:55;;;;;;;0.93;0.82;;;23.30;53.00;;;;;;5041810;28;20204;-59
2023/02/26 05:56:26;;;;;;;1.63;1.05;;;23.40;53.00;;;;;;5040703;28;20199;-60
2023/02/26 05:58:57;;;;;;;1.88;0.90;;;23.40;53.00;;;;;;5051888;28;20678;-61
2023/02/26 06:01:28;;;;;;;0.80;0.80;;;23.40;53.00;;;;;;5051754;28;20195;-61
2023/02/26 06:03:58;;;;;;;1.48;1.00;;;23.40;53.00;;;;;;5052074;28;20226;-62
2023/02/26 06:06:31;;;;;;;2.10;0.80;;;23.40;53.00;;;;;;5051969;28;20207;-61
2023/02/26 06:09:02;;;;;;;1.30;0.90;;;23.40;52.90;;;;;;5051747;28;20223;-61
2023/02/26 06:11:33;;;;;;;1.45;1.17;;;23.50;53.00;;;;;;5051512;28;20196;-61
2023/02/26 06:14:04;;;;;;;1.67;1.23;;;23.50;52.90;;;;;;5048098;28;20585;-62
2023/02/26 06:16:35;;;;;;;2.22;1.40;;;23.50;52.90;;;;;;5051679;28;20196;-59
2023/02/26 06:19:06;;;;;;;2.03;1.20;;;23.50;53.00;;;;;;5051908;28;20195;-62
2023/02/26 06:21:38;;;;;;;1.55;1.05;;;23.50;52.90;;;;;;5051719;28;20528;-61
2023/02/26 06:24:09;;;;;;;1.33;1.23;;;23.50;52.90;;;;;;5051437;28;20223;-59
2023/02/26 06:26:40;;;;;;;2.10;1.13;;;23.50;52.90;;;;;;5051107;28;20213;-59
2023/02/26 06:29:11;;;;;;;2.60;1.02;;;23.50;52.90;;;;;;5051074;28;20234;-60
2023/02/26 06:31:41;;;;;;;1.73;1.23;;;23.50;52.90;;;;;;5051244;28;20571;-60
2023/02/26 06:34:12;;;;;;;1.80;1.40;;;23.50;53.00;;;;;;5051288;28;20220;-59
2023/02/26 06:36:45;;;;;;;1.50;1.35;;;23.50;53.00;;;;;;5051595;28;20202;-60
2023/02/26 06:39:15;;;;;;;1.33;1.23;;;23.50;53.00;;;;;;5051395;28;20210;-60
2023/02/26 06:41:46;;;;;;;1.60;1.38;;;23.60;53.00;;;;;;5051125;28;20210;-60
2023/02/26 06:44:17;;;;;;;1.77;1.20;;;23.60;53.00;;;;;;5050792;28;20222;-60
2023/02/26 06:46:47;;;;;;;1.60;1.25;;;23.60;52.90;;;;;;5051655;28;20211;-60
2023/02/26 06:49:18;;;;;;;1.70;1.10;;;23.60;52.90;;;;;;5051074;28;20238;-62
2023/02/26 06:51:50;;;;;;;2.00;1.33;;;23.60;52.80;;;;;;5051194;28;20203;-61
2023/02/26 06:54:21;;;;;;;1.40;0.98;;;23.60;52.80;;;;;;5051147;28;20219;-62
2023/02/26 06:56:52;;;;;;;2.00;1.08;;;23.60;52.70;;;;;;5051553;28;20207;-62
2023/02/26 06:59:23;;;;;;;1.50;1.20;;;23.60;52.80;;;;;;5051217;28;20192;-61
2023/02/26 07:01:53;;;;;;;2.15;1.40;;;23.60;52.70;;;;;;5051663;28;20237;-61
2023/02/26 07:04:24;;;;;;;1.83;1.25;;;23.60;52.70;;;;;;5050609;28;20223;-62
2023/02/26 07:06:56;;;;;;;1.88;1.17;;;23.60;52.80;;;;;;5050439;28;20560;-61
2023/02/26 07:09:27;;;;;;;1.48;1.20;;;23.60;52.80;;;;;;5051028;28;20230;-60
2023/02/26 07:12:01;;;;;;;1.95;1.20;;;23.60;52.80;;;;;;5051218;28;20575;-62
2023/02/26 07:14:32;;;;;;;1.73;1.30;;;23.60;52.80;;;;;;5050860;28;20199;-60
2023/02/26 07:17:03;;;;;;;1.60;1.13;;;23.60;52.80;;;;;;5050885;28;20202;-62
2023/02/26 07:19:34;;;;;;;1.65;1.30;;;23.60;52.80;;;;;;5050903;28;20206;-60
2023/02/26 07:22:07;;;;;;;1.35;1.10;;;23.60;52.90;;;;;;5050784;28;20202;-62
2023/02/26 07:24:37;;;;;;;1.75;1.33;;;23.60;52.80;;;;;;5051184;28;20400;-62
2023/02/26 07:27:08;;;;;;;2.10;1.35;;;23.60;52.80;;;;;;5050750;28;20195;-62
2023/02/26 07:29:39;;;;;;;2.15;1.10;;;23.60;53.40;;;;;;5050850;28;20223;-62
2023/02/26 07:32:10;;;;;;;1.20;1.10;;;23.60;52.70;;;;;;5050921;28;20196;-62
2023/02/26 07:34:41;;;;;;;1.42;1.15;;;23.60;52.70;;;;;;5051217;28;20233;-62
2023/02/26 07:37:13;;;;;;;2.25;1.30;;;23.50;52.60;;;;;;5051055;28;20201;-62
2023/02/26 07:39:44;;;;;;;2.33;1.40;;;23.60;52.60;;;;;;5050380;28;20207;-61
2023/02/26 07:42:15;;;;;;;1.98;1.33;;;23.50;52.60;;;;;;5051281;28;20277;-61
2023/02/26 07:44:45;;;;;;;1.73;1.27;;;23.50;52.60;;;;;;5050906;28;20196;-61
2023/02/26 07:47:16;;;;;;;1.63;1.10;;;23.50;52.60;;;;;;5046532;28;20637;-61
2023/02/26 07:49:47;;;;;;;1.65;1.42;;;23.50;52.70;;;;;;5050501;28;20246;-61
2023/02/26 07:52:20;;;;;;;2.00;1.52;;;23.50;52.70;;;;;;5036827;28;20273;-61
2023/02/26 07:54:50;;;;;;;1.52;1.20;;;23.50;52.70;;;;;;5030943;28;20668;-62
2023/02/26 07:57:21;;;;;;;2.92;1.40;;;23.50;52.70;;;;;;5045409;28;20199;-62
2023/02/26 07:59:52;;;;;;;2.55;1.42;;;23.50;52.80;;;;;;5050829;28;20191;-61
2023/02/26 08:02:24;;;;;;;2.00;1.60;;;23.50;52.70;;;;;;5050955;28;20231;-62
2023/02/26 08:04:55;;;;;;;4.72;1.77;;;23.50;52.70;;;;;;5050660;28;20651;-61
2023/02/26 08:07:28;;;;;;;2.10;1.20;;;23.50;52.70;;;;;;5047673;28;20520;-61
2023/02/26 08:09:58;;;;;;;1.73;1.27;;;23.50;52.70;;;;;;5050166;28;20234;-61
2023/02/26 08:12:29;;;;;;;1.50;1.20;;;23.50;52.60;;;;;;5049839;28;20577;-60
2023/02/26 08:15:00;;;;;;;1.95;1.50;;;23.50;52.60;;;;;;5050524;28;20241;-62
2023/02/26 08:17:30;;;;;;;2.05;1.52;;;23.50;52.50;;;;;;5054257;28;20199;-62
2023/02/26 08:20:01;;;;;;;1.90;1.30;;;23.50;52.50;;;;;;5054323;28;20199;-62
2023/02/26 08:22:34;;;;;;;1.85;1.33;;;23.40;52.50;;;;;;5054115;28;20638;-62
2023/02/26 08:25:04;;;;;;;1.85;1.27;;;23.50;52.50;;;;;;5054008;28;20683;-62
2023/02/26 08:27:35;;;;;;;2.28;1.40;;;23.40;52.50;;;;;;5053898;28;20199;-62
2023/02/26 08:30:06;;;;;;;1.60;1.20;;;23.40;52.50;;;;;;5054206;28;20228;-61
2023/02/26 08:32:38;;;;;;;1.50;1.40;;;23.40;53.10;;;;;;5054123;28;20219;-62
2023/02/26 08:35:09;;;;;;;1.48;1.38;;;23.40;52.50;;;;;;5053809;28;20196;-62
2023/02/26 08:37:42;;;;;;;1.38;1.23;;;23.40;52.50;;;;;;5053979;28;20214;-62
2023/02/26 08:40:15;;;;;;;2.17;1.20;;;23.40;52.50;;;;;;5054074;28;20195;-62
2023/02/26 08:42:45;;;;;;;1.63;1.50;;;23.40;52.50;;;;;;5053435;28;20215;-62
2023/02/26 08:45:17;;;;;;;1.52;1.30;;;23.40;52.50;;;;;;5053469;28;20655;-62
2023/02/26 08:47:48;;;;;;;1.75;1.52;;;23.40;52.50;;;;;;5053467;28;20196;-62
2023/02/26 08:50:19;;;;;;;1.88;1.58;;;23.40;52.50;;;;;;5053945;28;20227;-61
2023/02/26 08:52:51;;;;;;;2.70;1.55;;;23.40;53.10;;;;;;5053879;28;20216;-61
2023/02/26 08:55:22;;;;;;;2.22;1.40;;;23.40;52.50;;;;;;5054089;28;20210;-62
2023/02/26 08:57:53;;;;;;;2.65;1.40;;;23.30;52.50;;;;;;5053096;28;20205;-62
2023/02/26 09:00:24;;;;;;;2.03;1.40;;;23.30;52.40;;;;;;5053283;28;20207;-62
2023/02/26 09:02:55;;;;;;;2.20;1.50;;;23.30;52.50;;;;;;5053589;28;20219;-62
2023/02/26 09:05:25;;;;;;;1.85;1.60;;;23.30;52.50;;;;;;5052774;28;20198;-62
2023/02/26 09:07:58;;;;;;;2.33;1.70;;;23.30;52.50;;;;;;5052588;28;20659;-59
2023/02/26 09:10:29;;;;;;;2.47;1.58;;;23.30;52.40;;;;;;5053258;28;20231;-60
2023/02/26 09:12:59;;;;;;;1.40;1.30;;;23.30;52.50;;;;;;5053082;28;20223;-59
2023/02/26 09:15:30;;;;;;;1.45;1.35;;;23.30;53.00;;;;;;5052816;28;20215;-63
2023/02/26 09:18:01;;;;;;;1.65;1.38;;;23.30;52.50;;;;;;5052323;28;20669;-62
2023/02/26 09:20:32;;;;;;;2.58;1.30;;;23.30;53.00;;;;;;5051915;28;20199;-62
2023/02/26 09:23:04;;;;;;;1.98;1.50;;;23.30;52.40;;;;;;5052615;28;20230;-63
2023/02/26 09:25:35;;;;;;;1.48;1.10;;;23.30;52.50;;;;;;5052661;28;20199;-62
2023/02/26 09:28:06;;;;;;;1.65;1.45;;;23.30;52.40;;;;;;5032509;28;20203;-62
2023/02/26 09:30:37;;;;;;;1.48;1.38;;;23.30;52.50;;;;;;5033069;28;20231;-62
2023/02/26 09:33:08;;;;;;;1.33;1.13;;;23.20;52.40;;;;;;5032694;28;20228;-63
2023/02/26 09:35:39;;;;;;;2.63;1.50;;;23.20;52.40;;;;;;5032724;28;20284;-62
2023/02/26 09:38:11;;;;;;;2.25;1.55;;;23.20;52.50;;;;;;5032728;28;20196;-61
2023/02/26 09:40:46;;;;;;;1.92;1.40;;;23.20;52.40;;;;;;5035005;28;20188;-61
2023/02/26 09:43:48;;;;;;;1.52;1.35;;;23.20;52.40;;;;;;5032297;28;20578;-60
2023/02/26 09:46:27;;;;;;;1.45;1.25;;;23.20;52.40;;;;;;5032542;28;20199;-60
2023/02/26 09:49:08;;;;;;;1.88;1.30;;;23.20;52.40;;;;;;5032337;28;20688;-62
2023/02/26 09:51:39;;;;;;;1.90;1.40;;;23.10;52.30;;;;;;5034882;28;20200;-62
2023/02/26 09:54:19;;;;;;;2.13;1.40;;;23.20;52.40;;;;;;5032501;28;20220;-62
2023/02/26 09:56:51;;;;;;;1.85;1.48;;;23.10;52.40;;;;;;5042099;28;20195;-62
2023/02/26 09:59:22;;;;;;;2.45;1.50;;;23.10;52.40;;;;;;5034514;28;20207;-62
2023/02/26 10:02:02;;;;;;;2.08;1.58;;;23.10;52.40;;;;;;5032152;28;20649;-62
2023/02/26 10:04:48;;;;;;;1.73;1.42;;;23.20;52.40;;;;;;5032013;28;20637;-61
2023/02/26 10:07:30;;;;;;;1.45;1.20;;;23.20;52.50;;;;;;5050178;28;20191;-61
2023/02/26 10:10:19;;;;;;;1.85;1.40;;;23.20;52.40;;;;;;5052294;28;20281;-62
2023/02/26 10:12:52;;;;;;;1.75;1.40;;;23.10;52.40;;;;;;5052071;28;20215;-58
2023/02/26 10:15:28;;;;;;;2.05;1.50;;;23.10;52.40;;;;;;5051942;28;20199;-61
2023/02/26 10:18:06;;;;;;;1.70;1.38;;;23.10;52.40;;;;;;5052043;28;20191;-60
2023/02/26 10:20:40;;;;;;;1.20;1.10;;;23.10;52.40;;;;;;5051718;28;20199;-60
2023/02/26 10:23:22;;;;;;;1.65;1.40;;;23.00;52.40;;;;;;5051723;28;20222;-58
2023/02/26 10:26:06;;;;;;;2.30;1.75;;;23.00;52.40;;;;;;5051768;28;20218;-60
2023/02/26 10:28:50;;;;;;;2.10;1.60;;;23.00;52.50;;;;;;5051646;28;20206;-60
2023/02/26 10:31:28;;;;;;;1.65;1.55;;;23.00;52.40;;;;;;5052092;28;20207;-60
2023/02/26 10:34:10;;;;;;;1.88;1.42;;;23.00;52.40;;;;;;5051852;28;20306;-59
2023/02/26 10:36:50;;;;;;;2.38;1.58;;;23.00;52.50;;;;;;5051463;28;20199;-60
2023/02/26 10:39:30;;;;;;;2.45;1.80;;;23.00;52.50;;;;;;5051176;28;20206;-60
2023/02/26 10:42:08;;;;;;;2.00;1.60;;;23.00;52.50;;;;;;5051631;28;20538;-60
2023/02/26 10:44:48;;;;;;;2.05;1.67;;;23.00;52.50;;;;;;5051220;28;20670;-59
2023/02/26 10:47:24;;;;;;;1.92;1.52;;;23.00;53.00;;;;;;5051523;28;20203;-58
2023/02/26 10:49:58;;;;;;;2.58;1.90;;;23.00;52.50;;;;;;5051335;28;20726;-58
2023/02/26 10:52:30;;;;;;;2.28;1.90;;;22.90;52.40;;;;;;5051852;28;20623;-59
2023/02/26 10:55:26;;;;;;;2.00;1.80;;;22.90;52.40;;;;;;5051503;28;20223;-60
2023/02/26 10:58:04;;;;;;;2.20;1.63;;;22.90;52.50;;;;;;5042608;28;20207;-60
2023/02/26 11:00:36;;;;;;;2.15;1.58;;;22.90;52.50;;;;;;5051467;28;20572;-60
2023/02/26 11:03:08;;;;;;;1.88;1.60;;;22.90;52.50;;;;;;5051350;28;20227;-58
2023/02/26 11:05:40;;;;;;;2.20;1.58;;;22.90;52.50;;;;;;5051529;28;20199;-60
2023/02/26 11:08:16;;;;;;;2.95;1.95;;;22.90;52.50;;;;;;5051423;28;20191;-60
2023/02/26 11:10:52;;;;;;;2.00;1.60;;;22.90;52.50;;;;;;5051228;28;20258;-60
2023/02/26 11:13:27;;;;;;;2.40;1.77;;;22.90;52.50;;;;;;5050824;28;20226;-60
2023/02/26 11:16:00;;;;;;;2.35;1.80;;;22.80;52.50;;;;;;5051401;28;20203;-62
2023/02/26 11:18:34;;;;;;;2.67;1.50;;;22.90;52.50;;;;;;5051566;28;20211;-60
2023/02/26 11:21:08;;;;;;;1.92;1.70;;;22.80;52.50;;;;;;5051098;28;20199;-60
2023/02/26 11:23:39;;;;;;;1.73;1.58;;;22.80;52.50;;;;;;5051487;28;20225;-58
2023/02/26 11:26:10;;;;;;;2.47;1.70;;;22.90;52.50;;;;;;5050496;28;20199;-60
2023/02/26 11:28:48;;;;;;;2.00;1.80;;;22.80;52.50;;;;;;5050227;28;20196;-60
2023/02/26 11:31:20;;;;;;;2.17;1.67;;;22.80;52.50;;;;;;5050867;28;20223;-60
2023/02/26 11:33:54;;;;;;;2.42;1.67;;;22.80;52.50;;;;;;5050921;28;20601;-58
2023/02/26 11:36:28;;;;;;;2.47;1.63;;;22.80;52.50;;;;;;5050969;28;20589;-60
2023/02/26 11:39:02;;;;;;;1.98;1.60;;;22.80;52.50;;;;;;5051014;28;20620;-60
2023/02/26 11:41:37;;;;;;;2.03;1.45;;;22.80;52.60;;;;;;5051359;28;20203;-60
2023/02/26 11:44:14;;;;;;;2.85;1.60;;;22.80;52.60;;;;;;5050725;28;20219;-59
2023/02/26 11:46:47;;;;;;;1.95;1.58;;;22.80;52.60;;;;;;5051102;28;20296;-59
2023/02/26 11:49:20;;;;;;;2.58;1.80;;;22.80;52.60;;;;;;5041133;28;20193;-59
2023/02/26 11:52:16;;;;;;;2.55;1.50;;;22.70;52.60;;;;;;5033955;28;20203;-61
2023/02/26 11:54:48;;;;;;;2.10;1.40;;;22.70;52.60;;;;;;5034679;28;20200;-60
2023/02/26 11:57:20;;;;;;;2.45;1.50;;;22.70;52.50;;;;;;5048640;28;20195;-59
2023/02/26 11:59:55;;;;;;;2.33;1.50;;;22.70;52.50;;;;;;5054434;28;20671;-60
2023/02/26 12:02:28;;;;;;;1.85;1.70;;;22.70;52.60;;;;;;5053835;28;20219;-60
2023/02/26 12:05:02;;;;;;;1.85;1.52;;;22.70;52.80;;;;;;5044452;28;20238;-59
2023/02/26 12:07:33;;;;;;;1.98;1.70;;;22.70;52.60;;;;;;5034625;28;20196;-60
2023/02/26 12:10:04;;;;;;;1.95;1.60;;;22.70;52.60;;;;;;5034382;28;20231;-59
2023/02/26 12:12:54;;;;;;;1.80;1.58;;;22.70;52.60;;;;;;5036997;28;20215;-59
2023/02/26 12:15:39;;;;;;;1.85;1.52;;;22.70;52.60;;;;;;5034469;28;20695;-58
2023/02/26 12:18:34;;;;;;;2.53;1.83;;;22.60;52.60;;;;;;5034173;28;20667;-60
2023/02/26 12:21:17;;;;;;;1.65;1.50;;;22.60;52.60;;;;;;5034206;28;20196;-59
2023/02/26 12:24:08;;;;;;;2.03;1.65;;;22.60;52.60;;;;;;5034337;28;20228;-59
2023/02/26 12:26:42;;;;;;;2.00;1.80;;;22.60;52.60;;;;;;5042490;28;20203;-59
2023/02/26 12:29:40;;;;;;;1.75;1.50;;;22.60;52.60;;;;;;5053835;28;20567;-60
2023/02/26 12:32:44;;;;;;;1.52;1.33;;;22.60;52.60;;;;;;5049349;28;20204;-59
2023/02/26 12:35:38;;;;;;;1.88;1.52;;;22.60;52.60;;;;;;5053369;28;20203;-59
2023/02/26 12:38:22;;;;;;;1.67;1.52;;;22.60;52.60;;;;;;5053383;28;20195;-59
2023/02/26 12:41:15;;;;;;;2.08;1.73;;;22.60;52.60;;;;;;5053846;28;20195;-59
2023/02/26 12:43:50;;;;;;;1.90;1.55;;;22.50;52.50;;;;;;5053411;28;20583;-60
2023/02/26 12:46:41;;;;;;;1.55;1.40;;;22.60;52.60;;;;;;5053425;28;20199;-60
2023/02/26 12:49:42;;;;;;;1.73;1.58;;;22.50;52.60;;;;;;5053216;28;20199;-59
2023/02/26 12:52:39;;;;;;;1.55;1.30;;;22.50;52.60;;;;;;5053451;28;20689;-59
2023/02/26 12:55:22;;;;;;;3.53;1.63;;;22.50;52.50;;;;;;5053349;28;20648;-59
2023/02/26 12:58:13;;;;;;;1.80;1.70;;;22.50;52.60;;;;;;5053702;28;20651;-59
2023/02/26 13:00:58;;;;;;;1.77;1.52;;;22.50;52.60;;;;;;5054269;28;20199;-59
2023/02/26 13:03:57;;;;;;;1.70;1.50;;;22.50;52.60;;;;;;5053336;28;20211;-59
2023/02/26 13:07:13;;;;;;;2.00;1.58;;;22.40;52.60;;;;;;5052756;28;20204;-59
2023/02/26 13:09:54;;;;;;;2.13;1.70;;;22.40;52.60;;;;;;5022735;28;20204;-59
2023/02/26 13:12:42;;;;;;;1.70;1.60;;;22.40;52.60;;;;;;5052877;28;20219;-58
2023/02/26 13:15:45;;;;;;;2.70;1.40;;;22.40;52.70;;;;;;5053097;28;20225;-59
2023/02/26 13:18:24;;;;;;;2.22;1.48;;;22.40;52.70;;;;;;5053258;28;20199;-59
2023/02/26 13:21:00;;;;;;;1.98;1.50;;;22.40;52.60;;;;;;5053338;28;20202;-59
2023/02/26 13:23:36;;;;;;;1.60;1.38;;;22.40;52.60;;;;;;5053089;28;20687;-59
2023/02/26 13:26:11;;;;;;;2.00;1.50;;;22.40;52.70;;;;;;5052627;28;20205;-59
2023/02/26 13:28:45;;;;;;;1.42;1.33;;;22.30;52.60;;;;;;5052895;28;20214;-58
2023/02/26 13:31:19;;;;;;;1.98;1.48;;;22.30;52.70;;;;;;5052947;28;20718;-60